Latest Weather Observations for Onslow Airport

IDW60801

Issued at 9:35 pm WST Tuesday 2 September 2014 (issued every 30 minutes, with the page automatically refreshed every 10 minutes)

About weather observations | Map of weather stations | Latest weather observations for WA | Other Formats
Station Details ID: 005017 Name: ONSLOW AIRPORT Lat: -21.67 Lon: 115.11 Height: 10.5 m
Data from the previous 72 hours. | See also: Recent months at Onslow Airport
Date/Time
WST
Temp
°C
App
Temp
°C
Dew
Point
Rel
Hum
%
Delta-T
°C
Wind Press
QNH
hPa
Press
MSL
hPa
Rain
since 9 am
mm
Dir
 
Spd
km/h
Gust
km/h
Spd
kts
Gust
kts
02/09:30pm 20.3 19.9 14.0 67 3.6 WSW 9 11 5 6 1018.3 1018.3 0.0
02/09:00pm 20.1 20.0 14.9 72 3.0 WSW 9 11 5 6 1018.1 1018.1 0.0
02/08:30pm 20.8 21.4 15.4 71 3.2 WSW 6 7 3 4 1017.7 1017.7 0.0
02/08:00pm 20.5 20.3 14.8 70 3.3 W 9 9 5 5 1017.3 1017.3 0.0
02/07:30pm 20.8 20.6 14.7 68 3.6 W 9 9 5 5 1016.9 1016.9 0.0
02/07:00pm 21.5 20.9 14.6 65 4.0 WNW 11 13 6 7 1016.6 1016.6 0.0
02/06:30pm 22.7 21.6 14.3 59 4.9 W 13 15 7 8 1016.5 1016.5 0.0
02/06:00pm 24.6 23.1 11.9 45 7.2 WNW 11 15 6 8 1016.1 1016.1 0.0
02/05:30pm 26.4 23.1 7.9 31 9.9 WNW 15 17 8 9 1015.8 1015.8 0.0
02/05:00pm 27.4 23.0 2.5 20 12.2 WNW 15 19 8 10 1015.6 1015.6 0.0
02/04:30pm 28.3 24.4 5.2 23 11.9 NW 15 17 8 9 1015.4 1015.4 0.0
02/04:00pm 29.1 25.3 5.9 23 12.2 WNW 15 20 8 11 1015.3 1015.3 0.0
02/03:30pm 29.5 25.1 4.9 21 12.7 WNW 17 19 9 10 1015.5 1015.5 0.0
02/03:00pm 29.2 25.2 6.6 24 12.0 WNW 17 20 9 11 1015.5 1015.5 0.0
02/02:30pm 29.1 24.8 5.2 22 12.4 NW 17 22 9 12 1015.7 1015.7 0.0
02/02:00pm 29.2 24.5 3.2 19 13.0 NW 17 22 9 12 1015.9 1015.9 0.0
02/01:30pm 29.6 25.9 8.1 26 11.8 NW 17 20 9 11 1016.4 1016.4 0.0
02/01:00pm 30.5 26.7 5.7 21 13.1 NW 15 19 8 10 1016.7 1016.7 0.0
02/12:30pm 30.3 27.4 8.1 25 12.2 NNW 13 17 7 9 1017.0 1017.0 0.0
02/12:00pm 29.4 26.7 9.0 28 11.3 NW 13 20 7 11 1017.1 1017.1 0.0
02/11:30am 29.1 27.0 9.8 30 10.8 NNW 11 13 6 7 1017.4 1017.4 0.0
02/11:00am 28.8 25.5 -1.3 14 13.9 SW 6 11 3 6 1017.7 1017.7 0.0
02/10:30am 27.6 25.1 6.4 26 11.1 SE 9 13 5 7 1018.0 1018.0 0.0
02/10:00am 26.6 24.6 8.6 32 9.8 SE 9 15 5 8 1017.9 1017.9 0.0
02/09:30am 24.9 24.4 12.8 47 7.0 E 7 11 4 6 1017.9 1017.9 0.0
02/09:00am 23.3 23.1 14.6 58 5.1 ENE 9 11 5 6 1017.9 1017.9 0.4
02/08:30am 21.3 21.4 15.6 70 3.4 E 9 11 5 6 1017.6 1017.6 0.4
02/08:00am 19.5 20.5 16.9 85 1.6 E 7 9 4 5 1017.4 1017.4 0.4
02/07:30am 18.0 18.9 16.5 91 0.9 ESE 7 7 4 4 1017.4 1017.4 0.4
02/07:00am 16.0 16.5 14.9 93 0.6 SE 6 7 3 4 1016.9 1016.9 0.2
02/06:30am 15.6 15.9 14.6 94 0.6 ESE 6 6 3 3 1016.6 1016.6 0.2
02/06:00am 15.8 16.1 15.0 95 0.5 ESE 7 9 4 5 1016.4 1016.4 0.2
02/05:30am 15.9 17.6 15.3 96 0.3 CALM 0 6 0 3 1016.2 1016.2 0.2
02/05:00am 15.5 15.0 15.0 97 0.3 ESE 11 13 6 7 1015.9 1015.9 0.2
02/04:30am 15.8 15.8 15.3 97 0.3 E 9 11 5 6 1015.7 1015.7 0.2
02/04:00am 16.0 16.1 15.5 97 0.3 SE 9 11 5 6 1015.6 1015.6 0.2
02/03:30am 16.6 17.3 16.1 97 0.3 SE 7 9 4 5 1015.4 1015.4 0.2
02/03:00am 17.9 18.4 17.4 97 0.3 SE 11 15 6 8 1015.6 1015.6 0.2
02/02:30am 17.7 18.0 17.1 96 0.4 SE 11 13 6 7 1015.4 1015.4 0.2
02/02:00am 16.9 17.8 16.1 95 0.5 SSE 6 9 3 5 1015.4 1015.4 0.0
02/01:30am 16.6 18.4 15.6 94 0.6 SSW 0 0 0 0 1015.8 1015.8 0.0
02/01:00am 17.5 18.6 16.5 94 0.6 SSW 6 6 3 3 1016.1 1016.1 0.0
02/12:30am 17.4 18.2 16.4 94 0.6 WSW 7 9 4 5 1016.2 1016.2 0.0
02/12:00am 18.3 19.0 17.1 93 0.7 WSW 9 9 5 5 1016.2 1016.2 0.0
 
Date/Time
WST
Temp
°C
App
Temp
°C
Dew
Point
Rel
Hum
%
Delta-T
°C
Wind Press
QNH
hPa
Press
MSL
hPa
Rain
since 9 am
mm
Dir
 
Spd
km/h
Gust
km/h
Spd
kts
Gust
kts
01/11:30pm 18.6 19.1 17.4 93 0.7 W 11 13 6 7 1016.3 1016.3 0.0
01/11:00pm 19.1 19.7 17.8 92 0.8 WSW 11 15 6 8 1016.6 1016.6 0.0
01/10:30pm 18.8 19.3 17.5 92 0.8 WSW 11 13 6 7 1016.7 1016.7 0.0
01/10:00pm 19.3 19.9 17.8 91 0.9 W 11 13 6 7 1016.8 1016.8 0.0
01/09:30pm 19.5 19.8 17.8 90 1.0 WNW 13 13 7 7 1016.6 1016.6 0.0
01/09:00pm 20.3 20.8 18.4 89 1.2 WNW 13 15 7 8 1016.4 1016.4 0.0
01/08:30pm 20.4 20.9 18.3 88 1.3 WNW 13 13 7 7 1016.3 1016.3 0.0
01/08:00pm 21.1 21.8 18.9 87 1.4 NW 13 15 7 8 1016.0 1016.0 0.0
01/07:30pm 21.3 22.0 18.9 86 1.5 WNW 13 13 7 7 1015.7 1015.7 0.0
01/07:00pm 21.7 22.3 18.5 82 2.0 WNW 13 15 7 8 1015.3 1015.3 0.0
01/06:30pm 22.5 23.1 18.5 78 2.5 NW 13 17 7 9 1014.9 1014.9 0.0
01/06:00pm 23.8 23.8 18.2 71 3.5 WNW 15 19 8 10 1014.8 1014.8 0.0
01/05:30pm 25.0 24.0 17.5 63 4.7 NW 19 24 10 13 1014.5 1014.5 0.0
01/05:00pm 26.1 24.5 16.1 54 6.1 NW 19 24 10 13 1014.3 1014.3 0.0
01/04:30pm 26.8 25.0 16.1 52 6.6 NW 20 24 11 13 1014.0 1014.0 0.0
01/04:00pm 27.6 25.4 15.9 49 7.2 NNW 22 28 12 15 1013.8 1013.8 0.0
01/03:30pm 27.9 24.9 15.9 48 7.4 NNW 26 32 14 17 1013.8 1013.8 0.0
01/03:00pm 28.3 25.2 13.4 40 8.8 NW 22 30 12 16 1014.0 1014.0 0.0
01/02:30pm 27.9 24.1 12.3 38 9.1 NW 24 30 13 16 1014.2 1014.2 0.0
01/02:00pm 28.6 24.0 8.3 28 11.1 NNW 22 32 12 17 1014.4 1014.4 0.0
01/01:30pm 29.0 24.7 10.6 32 10.5 NNW 24 30 13 16 1014.5 1014.5 0.0
01/01:00pm 29.3 25.1 9.9 30 10.9 NNW 22 32 12 17 1014.7 1014.7 0.0
01/12:30pm 30.3 27.1 13.1 34 10.2 NW 22 30 12 16 1014.9 1014.9 0.0
01/12:00pm 33.2 28.2 1.1 13 15.9 N 17 22 9 12 1015.2 1015.2 0.0
01/11:30am 32.9 29.4 -1.4 11 16.3 NE 7 15 4 8 1015.6 1015.6 0.0
01/11:00am 32.5 28.5 0.6 13 15.6 E 11 15 6 8 1016.1 1016.1 0.0
01/10:30am 31.8 27.5 1.0 14 15.1 E 13 19 7 10 1016.4 1016.4 0.0
01/10:00am 30.7 25.1 0.2 14 14.7 ESE 19 22 10 12 1016.5 1016.5 0.0
01/09:30am 28.6 23.8 2.7 19 12.8 SE 17 20 9 11 1016.6 1016.6 0.0
01/09:00am 26.5 23.4 5.5 26 10.8 SE 11 15 6 8 1016.2 1016.2 0.0
01/08:30am 23.3 20.1 5.2 31 9.1 SE 11 13 6 7 1016.0 1016.0 0.0
01/08:00am 22.1 18.4 4.6 32 8.6 SE 13 17 7 9 1015.8 1015.8 0.0
01/07:30am 19.3 16.6 5.4 40 6.8 ESE 9 11 5 6 1015.7 1015.7 0.0
01/07:00am 16.7 14.2 6.5 51 5.0 ESE 9 13 5 7 1015.6 1015.6 0.0
01/06:30am 15.2 12.3 6.7 57 4.1 ESE 11 13 6 7 1015.5 1015.5 0.0
01/06:00am 15.9 13.1 6.9 55 4.4 SE 11 13 6 7 1015.3 1015.3 0.0
01/05:30am 16.2 13.5 7.2 55 4.5 SE 11 13 6 7 1015.2 1015.2 0.0
01/05:00am 16.8 12.8 6.6 51 5.0 SSE 17 17 9 9 1015.1 1015.1 0.0
01/04:30am 17.5 14.1 7.5 52 5.0 SSE 15 17 8 9 1014.9 1014.9 0.0
01/04:00am 18.3 14.5 7.7 50 5.4 SSE 17 20 9 11 1014.6 1014.6 0.0
01/03:30am 19.0 15.0 8.4 50 5.5 SSE 19 24 10 13 1014.5 1014.5 0.0
01/03:00am 19.7 15.3 9.0 50 5.6 S 22 28 12 15 1014.6 1014.6 0.0
01/02:30am 19.7 15.5 9.6 52 5.4 S 22 28 12 15 1014.8 1014.8 0.0
01/02:00am 20.0 16.0 10.4 54 5.2 S 22 28 12 15 1015.0 1015.0 0.0
01/01:30am 20.1 16.5 10.5 54 5.2 S 20 26 11 14 1015.2 1015.2 0.0
01/01:00am 19.3 16.2 10.3 56 4.8 S 17 19 9 10 1015.4 1015.4 0.0
01/12:30am 19.2 15.9 9.4 53 5.2 S 17 19 9 10 1015.6 1015.6 0.0
01/12:00am 19.8 16.4 9.1 50 5.6 S 17 20 9 11 1015.7 1015.7 0.0
 
Date/Time
WST
Temp
°C
App
Temp
°C
Dew
Point
Rel
Hum
%
Delta-T
°C
Wind Press
QNH
hPa
Press
MSL
hPa
Rain
since 9 am
mm
Dir
 
Spd
km/h
Gust
km/h
Spd
kts
Gust
kts
31/11:30pm 19.8 16.7 8.8 49 5.8 SSW 15 17 8 9 1015.8 1015.8 0.0
31/11:00pm 19.9 16.7 8.6 48 5.9 SSW 15 17 8 9 1015.9 1015.9 0.0
31/10:30pm 20.7 17.2 8.7 46 6.3 SSW 17 19 9 10 1015.9 1015.9 0.0
31/10:00pm 21.5 18.2 8.1 42 7.0 SW 15 19 8 10 1016.0 1016.0 0.0
31/09:30pm 21.0 17.1 7.3 41 7.0 SW 17 17 9 9 1016.0 1016.0 0.0
31/09:00pm 21.1 18.6 9.7 48 6.1 SW 13 17 7 9 1015.9 1015.9 0.0
31/08:30pm 21.4 18.4 9.3 46 6.5 SW 15 15 8 8 1015.6 1015.6 0.0
31/08:00pm 22.5 19.9 10.6 47 6.5 WSW 15 17 8 9 1015.4 1015.4 0.0
31/07:30pm 22.7 19.7 9.1 42 7.3 W 15 17 8 9 1015.1 1015.1 0.0
31/07:00pm 23.6 20.1 7.3 35 8.5 W 15 17 8 9 1014.8 1014.8 0.0
31/06:30pm 24.6 22.0 9.3 38 8.3 W 13 17 7 9 1014.4 1014.4 0.0
31/06:00pm 26.4 23.3 8.8 33 9.6 W 15 20 8 11 1014.1 1014.1 0.0
31/05:30pm 27.6 23.7 9.4 32 10.1 W 20 28 11 15 1013.8 1013.8 0.0
31/05:00pm 28.7 24.5 8.4 28 11.1 WNW 20 26 11 14 1013.6 1013.6 0.0
31/04:30pm 29.6 25.1 6.9 24 12.2 WNW 20 26 11 14 1013.6 1013.6 0.0
31/04:00pm 29.8 25.3 7.1 24 12.2 WNW 20 24 11 13 1013.5 1013.5 0.0
31/03:30pm 30.1 25.7 9.1 27 11.7 WNW 22 28 12 15 1013.6 1013.6 0.0
31/03:00pm 29.9 25.6 10.9 31 10.9 WNW 24 28 13 15 1013.8 1013.8 0.0
31/02:30pm 31.5 26.7 5.8 20 13.7 NW 20 26 11 14 1014.0 1014.0 0.0
31/02:00pm 32.9 27.3 -2.7 10 16.6 NNW 17 22 9 12 1014.2 1014.2 0.0
31/01:30pm 33.2 29.2 -5.5 8 17.2 NNE 7 13 4 7 1014.4 1014.4 0.0
31/01:00pm 33.2 28.1 -5.5 8 17.2 SE 13 19 7 10 1014.6 1014.6 0.0
31/12:30pm 32.1 26.3 -4.7 9 16.5 SSE 17 22 9 12 1015.0 1015.0 0.0
31/12:00pm 32.4 27.0 -4.5 9 16.6 SE 15 22 8 12 1015.5 1015.5 0.0
31/11:30am 31.8 26.3 -2.3 11 15.9 SE 17 24 9 13 1016.0 1016.0 0.0
31/11:00am 31.2 25.5 0.6 14 14.9 SE 20 24 11 13 1016.4 1016.4 0.0
31/10:30am 29.8 23.5 1.3 16 13.9 SE 24 28 13 15 1016.9 1016.9 0.0
31/10:00am 28.3 22.5 2.5 19 12.7 SE 22 28 12 15 1017.2 1017.2 0.0
31/09:30am 27.4 20.9 2.5 20 12.2 SE 26 33 14 18 1017.3 1017.3 0.0
31/09:00am 26.4 20.0 3.0 22 11.5 SSE 26 37 14 20 1017.3 1017.3 0.0
31/08:30am 24.4 17.8 4.2 27 10.0 SSE 28 32 15 17 1017.2 1017.2 0.0
31/08:00am 22.5 16.6 4.1 30 9.0 SSE 24 30 13 16 1017.0 1017.0 0.0
31/07:30am 20.2 15.1 4.3 35 7.7 SSE 20 24 11 13 1016.9 1016.9 0.0
31/07:00am 19.1 14.3 4.8 39 6.9 SSE 19 24 10 13 1016.7 1016.7 0.0
31/06:30am 18.8 13.4 4.6 39 6.8 SSE 22 26 12 14 1016.2 1016.2 0.0
31/06:00am 19.1 13.2 3.7 36 7.3 S 24 32 13 17 1016.0 1016.0 0.0
31/05:30am 19.1 13.1 3.3 35 7.4 S 24 30 13 16 1015.9 1015.9 0.0
31/05:00am 19.3 13.3 3.1 34 7.6 S 24 28 13 15 1015.8 1015.8 0.0
31/04:30am 19.5 14.4 4.0 36 7.4 S 20 26 11 14 1015.8 1015.8 0.0
31/04:00am 19.9 13.8 2.7 32 8.0 S 24 28 13 15 1015.8 1015.8 0.0
31/03:30am 19.9 13.8 2.7 32 8.0 S 24 30 13 16 1015.7 1015.7 0.0
31/03:00am 19.4 14.0 2.7 33 7.7 S 20 24 11 13 1015.8 1015.8 0.0
31/02:30am 18.8 13.9 2.2 33 7.6 S 17 20 9 11 1015.9 1015.9 0.0
31/02:00am 19.0 14.3 3.2 35 7.4 SSW 17 19 9 10 1015.9 1015.9 0.0
31/01:30am 19.5 14.8 3.2 34 7.6 SSW 17 22 9 12 1016.2 1016.2 0.0
31/01:00am 19.1 14.4 3.3 35 7.4 SSW 17 20 9 11 1016.3 1016.3 0.0
31/12:30am 18.9 14.8 4.3 38 7.0 SSW 15 20 8 11 1016.6 1016.6 0.0
31/12:00am 19.4 15.4 5.1 39 6.9 SSW 15 19 8 10 1016.7 1016.7 0.0
 
Date/Time
WST
Temp
°C
App
Temp
°C
Dew
Point
Rel
Hum
%
Delta-T
°C
Wind Press
QNH
hPa
Press
MSL
hPa
Rain
since 9 am
mm
Dir
 
Spd
km/h
Gust
km/h
Spd
kts
Gust
kts
30/11:30pm 19.8 15.5 5.1 38 7.2 SSW 17 19 9 10 1016.7 1016.7 0.0
30/11:00pm 20.6 16.5 6.2 39 7.2 SSW 17 19 9 10 1016.7 1016.7 0.0
30/10:30pm 20.3 16.1 5.5 38 7.3 SW 17 17 9 9 1016.7 1016.7 0.0
30/10:00pm 20.4 15.8 3.6 33 8.0 SW 17 20 9 11 1016.9 1016.9 0.0

Other Formats:

Comma delimited format used in spreadsheet applications
http://www.bom.gov.au/fwo/IDW60801/IDW60801.95305.axf

JavaScript Object Notation format (JSON) in row-major order
http://www.bom.gov.au/fwo/IDW60801/IDW60801.95305.json